sensor_id;sensor_type;location;lat;lon;timestamp;P1;durP1;ratioP1;P2;durP2;ratioP2
3939;SDS011;1984;48.312;9.244;2023-07-20T00:00:49;7.97;;;1.63;;
3939;SDS011;1984;48.312;9.244;2023-07-20T00:03:18;7.60;;;1.97;;
3939;SDS011;1984;48.312;9.244;2023-07-20T00:05:47;2.13;;;1.83;;
3939;SDS011;1984;48.312;9.244;2023-07-20T00:08:13;4.60;;;1.90;;
3939;SDS011;1984;48.312;9.244;2023-07-20T00:10:40;2.10;;;1.70;;
3939;SDS011;1984;48.312;9.244;2023-07-20T00:13:06;4.47;;;2.10;;
3939;SDS011;1984;48.312;9.244;2023-07-20T00:15:31;2.23;;;2.03;;
3939;SDS011;1984;48.312;9.244;2023-07-20T00:17:57;5.73;;;2.47;;
3939;SDS011;1984;48.312;9.244;2023-07-20T00:20:23;2.47;;;2.10;;
3939;SDS011;1984;48.312;9.244;2023-07-20T00:22:50;3.23;;;1.77;;
3939;SDS011;1984;48.312;9.244;2023-07-20T00:25:16;3.03;;;2.20;;
3939;SDS011;1984;48.312;9.244;2023-07-20T00:27:42;2.87;;;2.17;;
3939;SDS011;1984;48.312;9.244;2023-07-20T00:30:07;4.00;;;2.30;;
3939;SDS011;1984;48.312;9.244;2023-07-20T00:32:33;2.53;;;2.20;;
3939;SDS011;1984;48.312;9.244;2023-07-20T00:34:59;4.20;;;2.13;;
3939;SDS011;1984;48.312;9.244;2023-07-20T00:37:24;3.67;;;2.20;;
3939;SDS011;1984;48.312;9.244;2023-07-20T00:39:50;3.27;;;2.40;;
3939;SDS011;1984;48.312;9.244;2023-07-20T00:42:16;8.10;;;2.07;;
3939;SDS011;1984;48.312;9.244;2023-07-20T00:44:41;3.90;;;2.37;;
3939;SDS011;1984;48.312;9.244;2023-07-20T00:47:07;15.00;;;3.40;;
3939;SDS011;1984;48.312;9.244;2023-07-20T00:49:33;6.03;;;2.30;;
3939;SDS011;1984;48.312;9.244;2023-07-20T00:51:59;2.30;;;2.10;;
3939;SDS011;1984;48.312;9.244;2023-07-20T00:54:26;4.70;;;2.57;;
3939;SDS011;1984;48.312;9.244;2023-07-20T00:56:52;3.63;;;1.90;;
3939;SDS011;1984;48.312;9.244;2023-07-20T00:59:18;2.77;;;2.50;;
3939;SDS011;1984;48.312;9.244;2023-07-20T01:01:44;2.83;;;2.40;;
3939;SDS011;1984;48.312;9.244;2023-07-20T01:04:09;2.53;;;2.33;;
3939;SDS011;1984;48.312;9.244;2023-07-20T01:06:37;3.13;;;2.23;;
3939;SDS011;1984;48.312;9.244;2023-07-20T01:12:02;4.00;;;2.37;;
3939;SDS011;1984;48.312;9.244;2023-07-20T01:14:34;6.50;;;2.57;;
3939;SDS011;1984;48.312;9.244;2023-07-20T01:17:00;3.70;;;2.10;;
3939;SDS011;1984;48.312;9.244;2023-07-20T01:19:26;2.67;;;2.40;;
3939;SDS011;1984;48.312;9.244;2023-07-20T01:22:50;2.50;;;2.00;;
3939;SDS011;1984;48.312;9.244;2023-07-20T01:32:56;4.50;;;2.97;;
3939;SDS011;1984;48.312;9.244;2023-07-20T01:35:24;3.60;;;2.70;;
3939;SDS011;1984;48.312;9.244;2023-07-20T01:37:53;4.80;;;2.50;;
3939;SDS011;1984;48.312;9.244;2023-07-20T01:40:20;3.17;;;2.87;;
3939;SDS011;1984;48.312;9.244;2023-07-20T01:42:48;7.63;;;2.40;;
3939;SDS011;1984;48.312;9.244;2023-07-20T01:45:14;6.30;;;2.60;;
3939;SDS011;1984;48.312;9.244;2023-07-20T01:47:39;4.73;;;2.50;;
3939;SDS011;1984;48.312;9.244;2023-07-20T01:50:05;3.20;;;2.30;;
3939;SDS011;1984;48.312;9.244;2023-07-20T01:52:31;4.87;;;2.33;;
3939;SDS011;1984;48.312;9.244;2023-07-20T01:54:57;2.97;;;2.70;;
3939;SDS011;1984;48.312;9.244;2023-07-20T01:57:23;4.03;;;2.30;;
3939;SDS011;1984;48.312;9.244;2023-07-20T01:59:48;2.10;;;2.00;;
3939;SDS011;1984;48.312;9.244;2023-07-20T02:02:13;4.70;;;2.57;;
3939;SDS011;1984;48.312;9.244;2023-07-20T02:04:39;3.73;;;2.63;;
3939;SDS011;1984;48.312;9.244;2023-07-20T02:07:05;3.80;;;2.77;;
3939;SDS011;1984;48.312;9.244;2023-07-20T02:09:30;4.70;;;2.43;;
3939;SDS011;1984;48.312;9.244;2023-07-20T02:11:56;2.70;;;2.17;;
3939;SDS011;1984;48.312;9.244;2023-07-20T02:14:21;4.97;;;2.57;;
3939;SDS011;1984;48.312;9.244;2023-07-20T02:16:47;3.93;;;2.70;;
3939;SDS011;1984;48.312;9.244;2023-07-20T02:19:17;3.30;;;2.07;;
3939;SDS011;1984;48.312;9.244;2023-07-20T02:21:44;5.13;;;2.27;;
3939;SDS011;1984;48.312;9.244;2023-07-20T02:24:09;7.30;;;2.37;;
3939;SDS011;1984;48.312;9.244;2023-07-20T02:26:35;2.20;;;2.00;;
3939;SDS011;1984;48.312;9.244;2023-07-20T02:29:00;6.40;;;2.47;;
3939;SDS011;1984;48.312;9.244;2023-07-20T02:31:29;3.37;;;2.60;;
3939;SDS011;1984;48.312;9.244;2023-07-20T02:33:55;6.37;;;2.33;;
3939;SDS011;1984;48.312;9.244;2023-07-20T02:36:20;3.53;;;2.30;;
3939;SDS011;1984;48.312;9.244;2023-07-20T02:38:46;6.93;;;2.23;;
3939;SDS011;1984;48.312;9.244;2023-07-20T02:41:12;2.80;;;2.30;;
3939;SDS011;1984;48.312;9.244;2023-07-20T02:43:38;3.03;;;2.57;;
3939;SDS011;1984;48.312;9.244;2023-07-20T02:46:04;3.00;;;2.33;;
3939;SDS011;1984;48.312;9.244;2023-07-20T02:48:29;4.50;;;2.57;;
3939;SDS011;1984;48.312;9.244;2023-07-20T02:50:55;2.50;;;2.27;;
3939;SDS011;1984;48.312;9.244;2023-07-20T02:53:20;4.63;;;2.60;;
3939;SDS011;1984;48.312;9.244;2023-07-20T02:55:46;2.50;;;2.30;;
3939;SDS011;1984;48.312;9.244;2023-07-20T02:58:12;4.60;;;2.40;;
3939;SDS011;1984;48.312;9.244;2023-07-20T03:00:37;3.00;;;2.03;;
3939;SDS011;1984;48.312;9.244;2023-07-20T03:03:03;3.07;;;2.10;;
3939;SDS011;1984;48.312;9.244;2023-07-20T03:05:28;5.80;;;2.50;;
3939;SDS011;1984;48.312;9.244;2023-07-20T03:07:55;3.10;;;2.10;;
3939;SDS011;1984;48.312;9.244;2023-07-20T03:10:20;5.53;;;2.30;;
3939;SDS011;1984;48.312;9.244;2023-07-20T03:12:46;2.73;;;2.53;;
3939;SDS011;1984;48.312;9.244;2023-07-20T03:15:11;6.23;;;2.40;;
3939;SDS011;1984;48.312;9.244;2023-07-20T03:17:37;16.73;;;3.10;;
3939;SDS011;1984;48.312;9.244;2023-07-20T03:20:03;9.73;;;2.90;;
3939;SDS011;1984;48.312;9.244;2023-07-20T03:22:30;2.37;;;2.13;;
3939;SDS011;1984;48.312;9.244;2023-07-20T03:24:55;3.43;;;2.70;;
3939;SDS011;1984;48.312;9.244;2023-07-20T03:27:21;4.80;;;3.03;;
3939;SDS011;1984;48.312;9.244;2023-07-20T03:29:46;3.27;;;2.50;;
3939;SDS011;1984;48.312;9.244;2023-07-20T03:32:12;3.67;;;2.57;;
3939;SDS011;1984;48.312;9.244;2023-07-20T03:34:37;2.53;;;2.33;;
3939;SDS011;1984;48.312;9.244;2023-07-20T03:37:03;5.73;;;3.00;;
3939;SDS011;1984;48.312;9.244;2023-07-20T03:39:30;3.60;;;2.53;;
3939;SDS011;1984;48.312;9.244;2023-07-20T03:41:55;4.03;;;2.73;;
3939;SDS011;1984;48.312;9.244;2023-07-20T03:44:22;2.50;;;2.13;;
3939;SDS011;1984;48.312;9.244;2023-07-20T03:46:49;2.77;;;2.57;;
3939;SDS011;1984;48.312;9.244;2023-07-20T03:49:14;6.80;;;2.70;;
3939;SDS011;1984;48.312;9.244;2023-07-20T03:51:40;4.43;;;2.80;;
3939;SDS011;1984;48.312;9.244;2023-07-20T03:54:05;4.47;;;2.50;;
3939;SDS011;1984;48.312;9.244;2023-07-20T03:56:31;3.43;;;2.77;;
3939;SDS011;1984;48.312;9.244;2023-07-20T03:59:00;6.97;;;2.87;;
3939;SDS011;1984;48.312;9.244;2023-07-20T04:01:26;3.00;;;2.70;;
3939;SDS011;1984;48.312;9.244;2023-07-20T04:03:51;2.73;;;2.53;;
3939;SDS011;1984;48.312;9.244;2023-07-20T04:06:17;17.63;;;2.80;;
3939;SDS011;1984;48.312;9.244;2023-07-20T04:08:42;3.50;;;2.40;;
3939;SDS011;1984;48.312;9.244;2023-07-20T04:11:09;4.50;;;2.60;;
3939;SDS011;1984;48.312;9.244;2023-07-20T04:13:35;6.80;;;2.83;;
3939;SDS011;1984;48.312;9.244;2023-07-20T04:16:00;3.10;;;2.67;;
3939;SDS011;1984;48.312;9.244;2023-07-20T04:18:27;7.93;;;2.40;;
3939;SDS011;1984;48.312;9.244;2023-07-20T04:20:53;3.70;;;2.40;;
3939;SDS011;1984;48.312;9.244;2023-07-20T04:23:19;5.97;;;2.30;;
3939;SDS011;1984;48.312;9.244;2023-07-20T04:25:44;6.07;;;2.90;;
3939;SDS011;1984;48.312;9.244;2023-07-20T04:28:10;3.87;;;2.37;;
3939;SDS011;1984;48.312;9.244;2023-07-20T04:30:36;3.13;;;2.10;;
3939;SDS011;1984;48.312;9.244;2023-07-20T04:33:02;2.90;;;2.27;;
3939;SDS011;1984;48.312;9.244;2023-07-20T04:38:17;4.20;;;2.60;;
3939;SDS011;1984;48.312;9.244;2023-07-20T04:40:46;3.17;;;2.00;;
3939;SDS011;1984;48.312;9.244;2023-07-20T04:43:13;3.83;;;2.40;;
3939;SDS011;1984;48.312;9.244;2023-07-20T04:45:39;3.73;;;2.20;;
3939;SDS011;1984;48.312;9.244;2023-07-20T04:48:07;5.27;;;2.50;;
3939;SDS011;1984;48.312;9.244;2023-07-20T04:50:36;3.40;;;2.53;;
3939;SDS011;1984;48.312;9.244;2023-07-20T04:53:02;5.00;;;2.20;;
3939;SDS011;1984;48.312;9.244;2023-07-20T04:55:27;7.03;;;2.60;;
3939;SDS011;1984;48.312;9.244;2023-07-20T04:57:53;2.90;;;2.37;;
3939;SDS011;1984;48.312;9.244;2023-07-20T05:00:18;5.30;;;2.17;;
3939;SDS011;1984;48.312;9.244;2023-07-20T05:02:44;3.50;;;2.60;;
3939;SDS011;1984;48.312;9.244;2023-07-20T05:05:12;2.83;;;2.27;;
3939;SDS011;1984;48.312;9.244;2023-07-20T05:07:38;8.27;;;2.47;;
3939;SDS011;1984;48.312;9.244;2023-07-20T05:10:03;3.33;;;2.30;;
3939;SDS011;1984;48.312;9.244;2023-07-20T05:12:29;9.57;;;2.73;;
3939;SDS011;1984;48.312;9.244;2023-07-20T05:14:55;2.77;;;2.57;;
3939;SDS011;1984;48.312;9.244;2023-07-20T05:17:20;7.83;;;3.00;;
3939;SDS011;1984;48.312;9.244;2023-07-20T05:19:46;5.50;;;2.40;;
3939;SDS011;1984;48.312;9.244;2023-07-20T05:22:13;2.10;;;2.00;;
3939;SDS011;1984;48.312;9.244;2023-07-20T05:24:39;3.73;;;2.50;;
3939;SDS011;1984;48.312;9.244;2023-07-20T05:27:04;8.30;;;2.53;;
3939;SDS011;1984;48.312;9.244;2023-07-20T05:29:30;4.93;;;2.20;;
3939;SDS011;1984;48.312;9.244;2023-07-20T05:31:56;3.10;;;2.70;;
3939;SDS011;1984;48.312;9.244;2023-07-20T05:34:22;2.40;;;2.00;;
3939;SDS011;1984;48.312;9.244;2023-07-20T05:36:48;5.30;;;2.80;;
3939;SDS011;1984;48.312;9.244;2023-07-20T05:39:13;4.00;;;2.47;;
3939;SDS011;1984;48.312;9.244;2023-07-20T05:41:39;4.87;;;2.33;;
3939;SDS011;1984;48.312;9.244;2023-07-20T05:44:05;2.83;;;2.47;;
3939;SDS011;1984;48.312;9.244;2023-07-20T05:46:31;6.77;;;2.47;;
3939;SDS011;1984;48.312;9.244;2023-07-20T05:48:56;3.40;;;1.60;;
3939;SDS011;1984;48.312;9.244;2023-07-20T05:51:22;2.70;;;2.13;;
3939;SDS011;1984;48.312;9.244;2023-07-20T05:53:47;3.50;;;1.90;;
3939;SDS011;1984;48.312;9.244;2023-07-20T05:56:13;2.23;;;2.03;;
3939;SDS011;1984;48.312;9.244;2023-07-20T05:58:39;2.50;;;2.10;;
3939;SDS011;1984;48.312;9.244;2023-07-20T06:01:04;4.33;;;2.27;;
3939;SDS011;1984;48.312;9.244;2023-07-20T06:03:33;4.47;;;1.70;;
3939;SDS011;1984;48.312;9.244;2023-07-20T06:05:59;4.50;;;2.20;;
3939;SDS011;1984;48.312;9.244;2023-07-20T06:08:26;1.77;;;1.67;;
3939;SDS011;1984;48.312;9.244;2023-07-20T06:10:55;5.10;;;2.00;;
3939;SDS011;1984;48.312;9.244;2023-07-20T06:13:21;4.03;;;2.00;;
3939;SDS011;1984;48.312;9.244;2023-07-20T06:15:47;3.27;;;2.30;;
3939;SDS011;1984;48.312;9.244;2023-07-20T06:18:12;3.23;;;1.83;;
3939;SDS011;1984;48.312;9.244;2023-07-20T06:20:38;2.23;;;2.03;;
3939;SDS011;1984;48.312;9.244;2023-07-20T06:23:04;7.43;;;2.70;;
3939;SDS011;1984;48.312;9.244;2023-07-20T06:25:30;2.77;;;1.93;;
3939;SDS011;1984;48.312;9.244;2023-07-20T06:27:56;4.83;;;1.80;;
3939;SDS011;1984;48.312;9.244;2023-07-20T06:30:22;5.47;;;2.63;;
3939;SDS011;1984;48.312;9.244;2023-07-20T06:32:48;3.07;;;2.10;;
3939;SDS011;1984;48.312;9.244;2023-07-20T06:35:13;3.90;;;2.00;;
3939;SDS011;1984;48.312;9.244;2023-07-20T06:37:39;2.10;;;1.80;;
3939;SDS011;1984;48.312;9.244;2023-07-20T06:40:05;2.03;;;1.93;;
3939;SDS011;1984;48.312;9.244;2023-07-20T06:42:33;2.40;;;2.10;;
3939;SDS011;1984;48.312;9.244;2023-07-20T06:44:59;9.63;;;2.30;;
3939;SDS011;1984;48.312;9.244;2023-07-20T06:47:25;2.40;;;1.97;;
3939;SDS011;1984;48.312;9.244;2023-07-20T06:49:51;6.13;;;2.40;;
3939;SDS011;1984;48.312;9.244;2023-07-20T06:52:17;2.43;;;1.90;;
3939;SDS011;1984;48.312;9.244;2023-07-20T06:54:42;6.60;;;2.30;;
3939;SDS011;1984;48.312;9.244;2023-07-20T06:57:08;3.80;;;2.17;;
3939;SDS011;1984;48.312;9.244;2023-07-20T06:59:33;4.00;;;2.37;;
3939;SDS011;1984;48.312;9.244;2023-07-20T07:01:59;5.53;;;2.43;;
3939;SDS011;1984;48.312;9.244;2023-07-20T07:04:24;2.50;;;2.10;;
3939;SDS011;1984;48.312;9.244;2023-07-20T07:06:50;3.00;;;2.00;;
3939;SDS011;1984;48.312;9.244;2023-07-20T07:09:15;1.83;;;1.63;;
3939;SDS011;1984;48.312;9.244;2023-07-20T07:11:41;5.00;;;1.73;;
3939;SDS011;1984;48.312;9.244;2023-07-20T07:14:06;3.30;;;2.17;;
3939;SDS011;1984;48.312;9.244;2023-07-20T07:16:32;3.90;;;2.00;;
3939;SDS011;1984;48.312;9.244;2023-07-20T07:18:58;7.63;;;2.13;;
3939;SDS011;1984;48.312;9.244;2023-07-20T07:21:24;2.10;;;1.77;;
3939;SDS011;1984;48.312;9.244;2023-07-20T07:23:50;4.23;;;1.93;;
3939;SDS011;1984;48.312;9.244;2023-07-20T07:26:18;2.20;;;1.60;;
3939;SDS011;1984;48.312;9.244;2023-07-20T07:28:44;2.13;;;1.93;;
3939;SDS011;1984;48.312;9.244;2023-07-20T07:31:10;3.17;;;1.87;;
3939;SDS011;1984;48.312;9.244;2023-07-20T07:33:35;4.03;;;2.00;;
3939;SDS011;1984;48.312;9.244;2023-07-20T07:36:01;5.13;;;1.63;;
3939;SDS011;1984;48.312;9.244;2023-07-20T07:38:26;6.40;;;1.90;;
3939;SDS011;1984;48.312;9.244;2023-07-20T07:40:52;4.03;;;2.63;;
3939;SDS011;1984;48.312;9.244;2023-07-20T07:43:17;2.00;;;1.80;;
3939;SDS011;1984;48.312;9.244;2023-07-20T07:45:43;6.53;;;1.90;;
3939;SDS011;1984;48.312;9.244;2023-07-20T07:48:08;4.00;;;2.07;;
3939;SDS011;1984;48.312;9.244;2023-07-20T07:50:37;2.40;;;1.93;;
3939;SDS011;1984;48.312;9.244;2023-07-20T07:53:05;3.70;;;1.70;;
3939;SDS011;1984;48.312;9.244;2023-07-20T07:55:30;1.70;;;1.60;;
3939;SDS011;1984;48.312;9.244;2023-07-20T07:57:56;4.20;;;1.83;;
3939;SDS011;1984;48.312;9.244;2023-07-20T08:00:22;2.63;;;1.47;;
3939;SDS011;1984;48.312;9.244;2023-07-20T08:02:47;2.77;;;1.90;;
3939;SDS011;1984;48.312;9.244;2023-07-20T08:05:15;1.70;;;1.60;;
3939;SDS011;1984;48.312;9.244;2023-07-20T08:07:40;3.27;;;1.90;;
3939;SDS011;1984;48.312;9.244;2023-07-20T08:10:06;3.13;;;1.53;;
3939;SDS011;1984;48.312;9.244;2023-07-20T08:12:32;2.13;;;1.33;;
3939;SDS011;1984;48.312;9.244;2023-07-20T08:14:58;1.83;;;1.30;;
3939;SDS011;1984;48.312;9.244;2023-07-20T08:17:24;2.63;;;1.60;;
3939;SDS011;1984;48.312;9.244;2023-07-20T08:19:49;3.93;;;2.20;;
3939;SDS011;1984;48.312;9.244;2023-07-20T08:22:15;1.50;;;1.40;;
3939;SDS011;1984;48.312;9.244;2023-07-20T08:24:41;3.07;;;1.30;;
3939;SDS011;1984;48.312;9.244;2023-07-20T08:27:07;2.70;;;1.43;;
3939;SDS011;1984;48.312;9.244;2023-07-20T08:29:33;3.30;;;1.77;;
3939;SDS011;1984;48.312;9.244;2023-07-20T08:31:59;3.47;;;1.30;;
3939;SDS011;1984;48.312;9.244;2023-07-20T08:34:25;1.23;;;1.13;;
3939;SDS011;1984;48.312;9.244;2023-07-20T08:36:50;1.70;;;1.40;;
3939;SDS011;1984;48.312;9.244;2023-07-20T08:39:16;1.67;;;1.23;;
3939;SDS011;1984;48.312;9.244;2023-07-20T08:41:46;1.63;;;1.53;;
3939;SDS011;1984;48.312;9.244;2023-07-20T08:44:11;2.40;;;1.60;;
3939;SDS011;1984;48.312;9.244;2023-07-20T08:46:38;1.67;;;1.57;;
3939;SDS011;1984;48.312;9.244;2023-07-20T08:49:05;3.33;;;1.53;;
3939;SDS011;1984;48.312;9.244;2023-07-20T08:51:31;4.93;;;1.77;;
3939;SDS011;1984;48.312;9.244;2023-07-20T08:53:58;3.63;;;1.70;;
3939;SDS011;1984;48.312;9.244;2023-07-20T08:56:25;5.77;;;1.97;;
3939;SDS011;1984;48.312;9.244;2023-07-20T08:58:52;2.20;;;1.63;;
3939;SDS011;1984;48.312;9.244;2023-07-20T09:01:19;1.60;;;1.50;;
3939;SDS011;1984;48.312;9.244;2023-07-20T09:03:46;6.47;;;2.03;;
3939;SDS011;1984;48.312;9.244;2023-07-20T09:06:13;1.73;;;1.63;;
3939;SDS011;1984;48.312;9.244;2023-07-20T09:08:39;2.33;;;2.13;;
3939;SDS011;1984;48.312;9.244;2023-07-20T09:11:05;4.53;;;2.10;;
3939;SDS011;1984;48.312;9.244;2023-07-20T09:13:32;2.17;;;1.70;;
3939;SDS011;1984;48.312;9.244;2023-07-20T09:15:58;3.20;;;2.20;;
3939;SDS011;1984;48.312;9.244;2023-07-20T09:18:24;9.83;;;2.10;;
3939;SDS011;1984;48.312;9.244;2023-07-20T09:20:52;5.67;;;1.90;;
3939;SDS011;1984;48.312;9.244;2023-07-20T09:23:17;5.97;;;1.87;;
3939;SDS011;1984;48.312;9.244;2023-07-20T09:25:43;6.80;;;1.77;;
3939;SDS011;1984;48.312;9.244;2023-07-20T09:28:10;4.10;;;1.60;;
3939;SDS011;1984;48.312;9.244;2023-07-20T09:30:36;3.63;;;1.67;;
3939;SDS011;1984;48.312;9.244;2023-07-20T09:33:01;3.20;;;2.03;;
3939;SDS011;1984;48.312;9.244;2023-07-20T09:35:27;3.20;;;1.63;;
3939;SDS011;1984;48.312;9.244;2023-07-20T09:38:00;4.23;;;1.90;;
3939;SDS011;1984;48.312;9.244;2023-07-20T09:40:26;4.70;;;2.10;;
3939;SDS011;1984;48.312;9.244;2023-07-20T09:42:53;1.77;;;1.67;;
3939;SDS011;1984;48.312;9.244;2023-07-20T09:45:27;1.93;;;1.77;;
3939;SDS011;1984;48.312;9.244;2023-07-20T09:48:04;1.87;;;1.60;;
3939;SDS011;1984;48.312;9.244;2023-07-20T09:50:31;6.67;;;2.10;;
3939;SDS011;1984;48.312;9.244;2023-07-20T09:53:07;2.87;;;1.70;;
3939;SDS011;1984;48.312;9.244;2023-07-20T09:55:38;4.37;;;2.70;;
3939;SDS011;1984;48.312;9.244;2023-07-20T09:58:05;1.80;;;1.70;;
3939;SDS011;1984;48.312;9.244;2023-07-20T10:00:35;5.63;;;1.73;;
3939;SDS011;1984;48.312;9.244;2023-07-20T10:03:02;7.43;;;1.77;;
3939;SDS011;1984;48.312;9.244;2023-07-20T10:05:30;5.80;;;1.73;;
3939;SDS011;1984;48.312;9.244;2023-07-20T10:07:59;3.60;;;1.40;;
3939;SDS011;1984;48.312;9.244;2023-07-20T10:10:26;7.13;;;1.70;;
3939;SDS011;1984;48.312;9.244;2023-07-20T10:12:52;4.50;;;1.50;;
3939;SDS011;1984;48.312;9.244;2023-07-20T10:15:23;3.57;;;1.57;;
3939;SDS011;1984;48.312;9.244;2023-07-20T10:17:59;8.83;;;1.63;;
3939;SDS011;1984;48.312;9.244;2023-07-20T10:20:45;3.67;;;1.47;;
3939;SDS011;1984;48.312;9.244;2023-07-20T10:23:11;4.23;;;1.80;;
3939;SDS011;1984;48.312;9.244;2023-07-20T10:25:37;3.03;;;1.63;;
3939;SDS011;1984;48.312;9.244;2023-07-20T10:28:06;3.40;;;1.40;;
3939;SDS011;1984;48.312;9.244;2023-07-20T10:30:34;2.00;;;1.43;;
3939;SDS011;1984;48.312;9.244;2023-07-20T10:33:03;4.53;;;1.60;;
3939;SDS011;1984;48.312;9.244;2023-07-20T10:35:30;1.67;;;1.57;;
3939;SDS011;1984;48.312;9.244;2023-07-20T10:38:00;1.50;;;1.40;;
3939;SDS011;1984;48.312;9.244;2023-07-20T10:40:27;5.13;;;1.40;;
3939;SDS011;1984;48.312;9.244;2023-07-20T10:43:02;3.10;;;1.10;;
3939;SDS011;1984;48.312;9.244;2023-07-20T10:45:52;1.40;;;1.23;;
3939;SDS011;1984;48.312;9.244;2023-07-20T10:48:22;0.90;;;0.90;;
3939;SDS011;1984;48.312;9.244;2023-07-20T10:53:39;5.17;;;1.63;;
3939;SDS011;1984;48.312;9.244;2023-07-20T10:56:05;3.70;;;1.47;;
3939;SDS011;1984;48.312;9.244;2023-07-20T10:58:44;1.70;;;1.40;;
3939;SDS011;1984;48.312;9.244;2023-07-20T11:01:13;4.00;;;1.20;;
3939;SDS011;1984;48.312;9.244;2023-07-20T11:03:39;2.30;;;1.43;;
3939;SDS011;1984;48.312;9.244;2023-07-20T11:08:56;3.70;;;1.50;;
3939;SDS011;1984;48.312;9.244;2023-07-20T11:11:41;6.93;;;1.60;;
3939;SDS011;1984;48.312;9.244;2023-07-20T11:14:21;2.97;;;1.50;;
3939;SDS011;1984;48.312;9.244;2023-07-20T11:16:48;5.20;;;1.30;;
3939;SDS011;1984;48.312;9.244;2023-07-20T11:19:18;2.27;;;1.40;;
3939;SDS011;1984;48.312;9.244;2023-07-20T11:21:46;4.30;;;1.57;;
3939;SDS011;1984;48.312;9.244;2023-07-20T11:24:15;1.43;;;1.33;;
3939;SDS011;1984;48.312;9.244;2023-07-20T11:26:44;2.20;;;1.40;;
3939;SDS011;1984;48.312;9.244;2023-07-20T11:29:19;3.03;;;1.27;;
3939;SDS011;1984;48.312;9.244;2023-07-20T11:31:46;2.53;;;1.50;;
3939;SDS011;1984;48.312;9.244;2023-07-20T11:34:16;2.30;;;1.40;;
3939;SDS011;1984;48.312;9.244;2023-07-20T11:36:46;3.30;;;1.40;;
3939;SDS011;1984;48.312;9.244;2023-07-20T11:39:20;1.77;;;1.67;;
3939;SDS011;1984;48.312;9.244;2023-07-20T11:41:52;1.57;;;1.47;;
3939;SDS011;1984;48.312;9.244;2023-07-20T11:44:19;2.93;;;1.70;;
3939;SDS011;1984;48.312;9.244;2023-07-20T11:46:59;2.23;;;1.90;;
3939;SDS011;1984;48.312;9.244;2023-07-20T11:49:39;8.73;;;1.80;;
3939;SDS011;1984;48.312;9.244;2023-07-20T11:52:08;1.50;;;1.40;;
3939;SDS011;1984;48.312;9.244;2023-07-20T11:54:37;2.17;;;1.50;;
3939;SDS011;1984;48.312;9.244;2023-07-20T11:57:04;4.73;;;1.53;;
3939;SDS011;1984;48.312;9.244;2023-07-20T11:59:33;9.93;;;1.80;;
3939;SDS011;1984;48.312;9.244;2023-07-20T12:02:00;1.60;;;1.50;;
3939;SDS011;1984;48.312;9.244;2023-07-20T12:04:27;1.60;;;1.50;;
3939;SDS011;1984;48.312;9.244;2023-07-20T12:06:54;1.57;;;1.47;;
3939;SDS011;1984;48.312;9.244;2023-07-20T12:09:20;2.20;;;1.60;;
3939;SDS011;1984;48.312;9.244;2023-07-20T12:11:48;1.43;;;1.33;;
3939;SDS011;1984;48.312;9.244;2023-07-20T12:14:15;3.77;;;1.50;;
3939;SDS011;1984;48.312;9.244;2023-07-20T12:16:40;1.83;;;1.67;;
3939;SDS011;1984;48.312;9.244;2023-07-20T12:19:07;1.80;;;1.57;;
3939;SDS011;1984;48.312;9.244;2023-07-20T12:21:35;1.60;;;1.50;;
3939;SDS011;1984;48.312;9.244;2023-07-20T12:24:05;3.03;;;1.70;;
3939;SDS011;1984;48.312;9.244;2023-07-20T12:26:32;5.00;;;1.37;;
3939;SDS011;1984;48.312;9.244;2023-07-20T12:28:58;2.00;;;1.27;;
3939;SDS011;1984;48.312;9.244;2023-07-20T12:31:25;1.30;;;1.20;;
3939;SDS011;1984;48.312;9.244;2023-07-20T12:33:51;2.50;;;1.70;;
3939;SDS011;1984;48.312;9.244;2023-07-20T12:36:18;3.13;;;1.50;;
3939;SDS011;1984;48.312;9.244;2023-07-20T12:38:43;3.03;;;1.43;;
3939;SDS011;1984;48.312;9.244;2023-07-20T12:41:10;2.53;;;1.43;;
3939;SDS011;1984;48.312;9.244;2023-07-20T12:43:40;2.73;;;1.60;;
3939;SDS011;1984;48.312;9.244;2023-07-20T12:46:06;1.70;;;1.60;;
3939;SDS011;1984;48.312;9.244;2023-07-20T12:48:32;1.30;;;1.20;;
3939;SDS011;1984;48.312;9.244;2023-07-20T12:50:58;2.27;;;1.90;;
3939;SDS011;1984;48.312;9.244;2023-07-20T12:53:23;2.30;;;1.90;;
3939;SDS011;1984;48.312;9.244;2023-07-20T12:55:49;1.43;;;1.33;;
3939;SDS011;1984;48.312;9.244;2023-07-20T12:58:15;1.50;;;1.40;;
3939;SDS011;1984;48.312;9.244;2023-07-20T13:00:40;3.10;;;1.43;;
3939;SDS011;1984;48.312;9.244;2023-07-20T13:03:06;2.90;;;1.90;;
3939;SDS011;1984;48.312;9.244;2023-07-20T13:05:33;2.50;;;1.47;;
3939;SDS011;1984;48.312;9.244;2023-07-20T13:08:00;3.10;;;1.53;;
3939;SDS011;1984;48.312;9.244;2023-07-20T13:10:25;2.17;;;1.43;;
3939;SDS011;1984;48.312;9.244;2023-07-20T13:12:51;4.77;;;1.77;;
3939;SDS011;1984;48.312;9.244;2023-07-20T13:15:17;2.03;;;1.93;;
3939;SDS011;1984;48.312;9.244;2023-07-20T13:17:43;1.80;;;1.50;;
3939;SDS011;1984;48.312;9.244;2023-07-20T13:20:09;9.00;;;1.67;;
3939;SDS011;1984;48.312;9.244;2023-07-20T13:22:39;2.00;;;1.40;;
3939;SDS011;1984;48.312;9.244;2023-07-20T13:25:05;1.93;;;1.77;;
3939;SDS011;1984;48.312;9.244;2023-07-20T13:27:31;5.63;;;1.53;;
3939;SDS011;1984;48.312;9.244;2023-07-20T13:29:58;2.10;;;1.60;;
3939;SDS011;1984;48.312;9.244;2023-07-20T13:32:24;3.13;;;1.63;;
3939;SDS011;1984;48.312;9.244;2023-07-20T13:34:49;1.57;;;1.40;;
3939;SDS011;1984;48.312;9.244;2023-07-20T13:37:15;2.97;;;1.47;;
3939;SDS011;1984;48.312;9.244;2023-07-20T13:39:41;4.23;;;1.50;;
3939;SDS011;1984;48.312;9.244;2023-07-20T13:42:07;2.30;;;1.57;;
3939;SDS011;1984;48.312;9.244;2023-07-20T13:44:34;1.30;;;1.20;;
3939;SDS011;1984;48.312;9.244;2023-07-20T13:47:00;1.13;;;1.13;;
3939;SDS011;1984;48.312;9.244;2023-07-20T13:49:26;2.90;;;1.57;;
3939;SDS011;1984;48.312;9.244;2023-07-20T13:51:52;3.63;;;1.70;;
3939;SDS011;1984;48.312;9.244;2023-07-20T13:54:18;5.80;;;1.60;;
3939;SDS011;1984;48.312;9.244;2023-07-20T13:56:43;6.33;;;1.80;;
3939;SDS011;1984;48.312;9.244;2023-07-20T13:59:09;1.27;;;1.27;;
3939;SDS011;1984;48.312;9.244;2023-07-20T14:01:34;1.97;;;1.50;;
3939;SDS011;1984;48.312;9.244;2023-07-20T14:04:00;1.40;;;1.23;;
3939;SDS011;1984;48.312;9.244;2023-07-20T14:06:30;2.67;;;1.70;;
3939;SDS011;1984;48.312;9.244;2023-07-20T14:08:57;4.87;;;1.43;;
3939;SDS011;1984;48.312;9.244;2023-07-20T14:11:23;2.67;;;1.50;;
3939;SDS011;1984;48.312;9.244;2023-07-20T14:13:49;6.10;;;1.70;;
3939;SDS011;1984;48.312;9.244;2023-07-20T14:16:16;4.27;;;1.80;;
3939;SDS011;1984;48.312;9.244;2023-07-20T14:18:41;4.37;;;1.67;;
3939;SDS011;1984;48.312;9.244;2023-07-20T14:21:07;2.33;;;1.53;;
3939;SDS011;1984;48.312;9.244;2023-07-20T14:23:33;3.13;;;1.53;;
3939;SDS011;1984;48.312;9.244;2023-07-20T14:25:59;2.93;;;1.77;;
3939;SDS011;1984;48.312;9.244;2023-07-20T14:28:24;3.10;;;1.80;;
3939;SDS011;1984;48.312;9.244;2023-07-20T14:30:50;6.70;;;1.50;;
3939;SDS011;1984;48.312;9.244;2023-07-20T14:33:15;1.73;;;1.63;;
3939;SDS011;1984;48.312;9.244;2023-07-20T14:35:41;5.17;;;1.50;;
3939;SDS011;1984;48.312;9.244;2023-07-20T14:38:06;2.03;;;1.40;;
3939;SDS011;1984;48.312;9.244;2023-07-20T14:40:32;2.10;;;1.43;;
3939;SDS011;1984;48.312;9.244;2023-07-20T14:42:58;3.20;;;1.70;;
3939;SDS011;1984;48.312;9.244;2023-07-20T14:45:26;2.33;;;1.53;;
3939;SDS011;1984;48.312;9.244;2023-07-20T14:47:52;5.33;;;1.60;;
3939;SDS011;1984;48.312;9.244;2023-07-20T14:50:22;2.07;;;1.67;;
3939;SDS011;1984;48.312;9.244;2023-07-20T14:52:47;2.83;;;1.70;;
3939;SDS011;1984;48.312;9.244;2023-07-20T14:55:14;3.63;;;1.57;;
3939;SDS011;1984;48.312;9.244;2023-07-20T14:57:39;2.63;;;1.40;;
3939;SDS011;1984;48.312;9.244;2023-07-20T15:00:05;3.90;;;1.50;;
3939;SDS011;1984;48.312;9.244;2023-07-20T15:02:37;1.60;;;1.50;;
3939;SDS011;1984;48.312;9.244;2023-07-20T15:05:06;5.60;;;1.87;;
3939;SDS011;1984;48.312;9.244;2023-07-20T15:07:32;1.93;;;1.57;;
3939;SDS011;1984;48.312;9.244;2023-07-20T15:09:58;8.43;;;1.87;;
3939;SDS011;1984;48.312;9.244;2023-07-20T15:12:23;1.63;;;1.50;;
3939;SDS011;1984;48.312;9.244;2023-07-20T15:15:02;3.50;;;1.70;;
3939;SDS011;1984;48.312;9.244;2023-07-20T15:17:39;3.13;;;1.60;;
3939;SDS011;1984;48.312;9.244;2023-07-20T15:20:06;11.40;;;1.80;;
3939;SDS011;1984;48.312;9.244;2023-07-20T15:22:33;1.50;;;1.40;;
3939;SDS011;1984;48.312;9.244;2023-07-20T15:25:00;6.17;;;1.60;;
3939;SDS011;1984;48.312;9.244;2023-07-20T15:27:29;1.80;;;1.50;;
3939;SDS011;1984;48.312;9.244;2023-07-20T15:29:55;1.50;;;1.30;;
3939;SDS011;1984;48.312;9.244;2023-07-20T15:32:20;2.13;;;1.60;;